sensor_id;sensor_type;location;lat;lon;timestamp;P1;durP1;ratioP1;P2;durP2;ratioP2
19364;SDS011;9818;48.382;10.850;2022-10-16T06:42:18;2.07;;;1.80;;
19364;SDS011;9818;48.382;10.850;2022-10-16T06:44:50;2.90;;;1.50;;
19364;SDS011;9818;48.382;10.850;2022-10-16T06:47:19;2.50;;;1.40;;
19364;SDS011;9818;48.382;10.850;2022-10-16T06:52:16;1.50;;;1.40;;
19364;SDS011;9818;48.382;10.850;2022-10-16T06:54:44;1.80;;;1.47;;
19364;SDS011;9818;48.382;10.850;2022-10-16T06:57:13;1.60;;;1.50;;
19364;SDS011;9818;48.382;10.850;2022-10-16T06:59:42;1.67;;;1.30;;
19364;SDS011;9818;48.382;10.850;2022-10-16T07:02:13;1.67;;;1.20;;
19364;SDS011;9818;48.382;10.850;2022-10-16T07:04:41;1.63;;;1.50;;
19364;SDS011;9818;48.382;10.850;2022-10-16T07:07:10;1.77;;;1.40;;
19364;SDS011;9818;48.382;10.850;2022-10-16T07:09:39;3.00;;;1.50;;
19364;SDS011;9818;48.382;10.850;2022-10-16T07:12:08;1.33;;;1.20;;
19364;SDS011;9818;48.382;10.850;2022-10-16T07:14:37;2.10;;;1.20;;
19364;SDS011;9818;48.382;10.850;2022-10-16T07:17:05;5.80;;;1.60;;
19364;SDS011;9818;48.382;10.850;2022-10-16T07:19:37;1.43;;;1.33;;
19364;SDS011;9818;48.382;10.850;2022-10-16T07:22:05;2.20;;;1.30;;
19364;SDS011;9818;48.382;10.850;2022-10-16T07:24:34;1.40;;;1.00;;
19364;SDS011;9818;48.382;10.850;2022-10-16T07:27:03;1.73;;;1.40;;
19364;SDS011;9818;48.382;10.850;2022-10-16T07:29:31;1.80;;;1.17;;
19364;SDS011;9818;48.382;10.850;2022-10-16T07:32:01;1.57;;;1.40;;
19364;SDS011;9818;48.382;10.850;2022-10-16T07:34:30;2.37;;;1.47;;
19364;SDS011;9818;48.382;10.850;2022-10-16T07:37:01;1.73;;;1.20;;
19364;SDS011;9818;48.382;10.850;2022-10-16T07:39:30;2.17;;;1.40;;
19364;SDS011;9818;48.382;10.850;2022-10-16T07:41:58;2.33;;;1.40;;
19364;SDS011;9818;48.382;10.850;2022-10-16T07:44:27;1.37;;;1.00;;
19364;SDS011;9818;48.382;10.850;2022-10-16T07:46:56;1.20;;;1.10;;
19364;SDS011;9818;48.382;10.850;2022-10-16T07:49:24;1.77;;;1.10;;
19364;SDS011;9818;48.382;10.850;2022-10-16T07:51:53;2.10;;;1.10;;
19364;SDS011;9818;48.382;10.850;2022-10-16T07:54:24;1.07;;;1.00;;
19364;SDS011;9818;48.382;10.850;2022-10-16T07:56:53;1.97;;;1.27;;
19364;SDS011;9818;48.382;10.850;2022-10-16T07:59:22;1.40;;;1.20;;
19364;SDS011;9818;48.382;10.850;2022-10-16T08:01:50;1.70;;;1.20;;
19364;SDS011;9818;48.382;10.850;2022-10-16T08:04:19;1.10;;;1.00;;
19364;SDS011;9818;48.382;10.850;2022-10-16T08:06:48;5.07;;;1.30;;
19364;SDS011;9818;48.382;10.850;2022-10-16T08:09:16;2.07;;;1.10;;
19364;SDS011;9818;48.382;10.850;2022-10-16T08:11:48;1.70;;;0.90;;
19364;SDS011;9818;48.382;10.850;2022-10-16T08:14:17;1.73;;;1.20;;
19364;SDS011;9818;48.382;10.850;2022-10-16T08:16:46;0.90;;;0.90;;
19364;SDS011;9818;48.382;10.850;2022-10-16T08:19:15;1.57;;;1.00;;
19364;SDS011;9818;48.382;10.850;2022-10-16T08:34:12;1.17;;;1.07;;
19364;SDS011;9818;48.382;10.850;2022-10-16T08:36:40;1.80;;;1.40;;
19364;SDS011;9818;48.382;10.850;2022-10-16T08:39:09;2.37;;;1.20;;
19364;SDS011;9818;48.382;10.850;2022-10-16T08:41:48;1.53;;;1.10;;
19364;SDS011;9818;48.382;10.850;2022-10-16T08:44:40;1.57;;;1.00;;
19364;SDS011;9818;48.382;10.850;2022-10-16T08:47:34;1.20;;;0.93;;
19364;SDS011;9818;48.382;10.850;2022-10-16T08:50:12;1.70;;;0.93;;
19364;SDS011;9818;48.382;10.850;2022-10-16T08:52:45;1.92;;;1.17;;
19364;SDS011;9818;48.382;10.850;2022-10-16T08:55:29;4.90;;;1.20;;
19364;SDS011;9818;48.382;10.850;2022-10-16T09:23:29;1.10;;;0.60;;
19364;SDS011;9818;48.382;10.850;2022-10-16T09:26:02;1.73;;;0.55;;
19364;SDS011;9818;48.382;10.850;2022-10-16T09:28:32;1.58;;;0.75;;
19364;SDS011;9818;48.382;10.850;2022-10-16T09:31:04;0.90;;;0.68;;
19364;SDS011;9818;48.382;10.850;2022-10-16T09:33:33;1.20;;;0.70;;
19364;SDS011;9818;48.382;10.850;2022-10-16T09:36:03;0.80;;;0.63;;
19364;SDS011;9818;48.382;10.850;2022-10-16T09:41:03;2.25;;;0.65;;
19364;SDS011;9818;48.382;10.850;2022-10-16T09:43:41;0.95;;;0.68;;
19364;SDS011;9818;48.382;10.850;2022-10-16T09:51:27;0.60;;;0.60;;
19364;SDS011;9818;48.382;10.850;2022-10-16T09:53:58;1.55;;;0.60;;
19364;SDS011;9818;48.382;10.850;2022-10-16T09:56:29;0.60;;;0.60;;
19364;SDS011;9818;48.382;10.850;2022-10-16T09:59:01;0.68;;;0.68;;
19364;SDS011;9818;48.382;10.850;2022-10-16T10:01:41;3.28;;;0.68;;
19364;SDS011;9818;48.382;10.850;2022-10-16T10:04:13;2.40;;;0.70;;
19364;SDS011;9818;48.382;10.850;2022-10-16T10:06:43;0.77;;;0.60;;
19364;SDS011;9818;48.382;10.850;2022-10-16T10:09:17;0.70;;;0.70;;
19364;SDS011;9818;48.382;10.850;2022-10-16T10:53:03;2.20;;;1.20;;
19364;SDS011;9818;48.382;10.850;2022-10-16T10:55:39;2.53;;;0.90;;
19364;SDS011;9818;48.382;10.850;2022-10-16T10:58:22;0.82;;;0.80;;
19364;SDS011;9818;48.382;10.850;2022-10-16T11:01:04;1.10;;;1.02;;
19364;SDS011;9818;48.382;10.850;2022-10-16T11:03:52;1.35;;;1.05;;
19364;SDS011;9818;48.382;10.850;2022-10-16T11:06:33;5.60;;;0.77;;
19364;SDS011;9818;48.382;10.850;2022-10-16T11:09:09;0.93;;;0.70;;
19364;SDS011;9818;48.382;10.850;2022-10-16T11:11:40;0.70;;;0.70;;
19364;SDS011;9818;48.382;10.850;2022-10-16T11:14:14;1.15;;;0.80;;
19364;SDS011;9818;48.382;10.850;2022-10-16T11:16:48;0.60;;;0.60;;
19364;SDS011;9818;48.382;10.850;2022-10-16T11:21:56;0.80;;;0.80;;
19364;SDS011;9818;48.382;10.850;2022-10-16T11:24:35;0.90;;;0.77;;
19364;SDS011;9818;48.382;10.850;2022-10-16T11:32:18;0.90;;;0.80;;
19364;SDS011;9818;48.382;10.850;2022-10-16T11:34:53;0.80;;;0.80;;
19364;SDS011;9818;48.382;10.850;2022-10-16T11:37:28;0.88;;;0.70;;
19364;SDS011;9818;48.382;10.850;2022-10-16T11:40:03;0.60;;;0.60;;
19364;SDS011;9818;48.382;10.850;2022-10-16T12:36:51;1.95;;;0.60;;
19364;SDS011;9818;48.382;10.850;2022-10-16T12:39:22;0.50;;;0.50;;
19364;SDS011;9818;48.382;10.850;2022-10-16T12:42:01;0.80;;;0.70;;
19364;SDS011;9818;48.382;10.850;2022-10-16T12:44:33;0.60;;;0.60;;
19364;SDS011;9818;48.382;10.850;2022-10-16T12:47:03;1.65;;;0.60;;
19364;SDS011;9818;48.382;10.850;2022-10-16T12:49:34;1.27;;;0.80;;
19364;SDS011;9818;48.382;10.850;2022-10-16T12:55:12;0.70;;;0.70;;
19364;SDS011;9818;48.382;10.850;2022-10-16T12:57:46;0.60;;;0.60;;
19364;SDS011;9818;48.382;10.850;2022-10-16T13:00:28;2.60;;;0.73;;
19364;SDS011;9818;48.382;10.850;2022-10-16T13:06:00;1.00;;;0.80;;
19364;SDS011;9818;48.382;10.850;2022-10-16T13:08:49;0.50;;;0.50;;
19364;SDS011;9818;48.382;10.850;2022-10-16T13:11:35;0.80;;;0.80;;
19364;SDS011;9818;48.382;10.850;2022-10-16T13:14:22;0.80;;;0.60;;
19364;SDS011;9818;48.382;10.850;2022-10-16T13:17:13;1.60;;;0.80;;
19364;SDS011;9818;48.382;10.850;2022-10-16T13:19:51;1.27;;;0.67;;
19364;SDS011;9818;48.382;10.850;2022-10-16T13:22:27;0.50;;;0.50;;
19364;SDS011;9818;48.382;10.850;2022-10-16T13:25:14;0.80;;;0.80;;
19364;SDS011;9818;48.382;10.850;2022-10-16T13:27:50;1.00;;;0.73;;
19364;SDS011;9818;48.382;10.850;2022-10-16T13:30:23;1.13;;;0.73;;
19364;SDS011;9818;48.382;10.850;2022-10-16T13:32:55;2.75;;;0.60;;
19364;SDS011;9818;48.382;10.850;2022-10-16T22:31:06;3.27;;;2.23;;
19364;SDS011;9818;48.382;10.850;2022-10-16T22:33:36;2.37;;;1.80;;
19364;SDS011;9818;48.382;10.850;2022-10-16T22:36:06;7.00;;;2.70;;
19364;SDS011;9818;48.382;10.850;2022-10-16T22:38:39;2.17;;;1.97;;
19364;SDS011;9818;48.382;10.850;2022-10-16T22:41:09;2.50;;;2.17;;
19364;SDS011;9818;48.382;10.850;2022-10-16T22:43:40;3.00;;;2.30;;
19364;SDS011;9818;48.382;10.850;2022-10-16T22:46:10;3.47;;;2.10;;
19364;SDS011;9818;48.382;10.850;2022-10-16T22:48:41;2.33;;;2.13;;
19364;SDS011;9818;48.382;10.850;2022-10-16T22:51:12;5.33;;;2.50;;
19364;SDS011;9818;48.382;10.850;2022-10-16T22:53:43;4.20;;;2.70;;
19364;SDS011;9818;48.382;10.850;2022-10-16T22:56:13;4.27;;;2.53;;
19364;SDS011;9818;48.382;10.850;2022-10-16T22:58:42;2.67;;;2.30;;
19364;SDS011;9818;48.382;10.850;2022-10-16T23:01:12;3.70;;;3.00;;
19364;SDS011;9818;48.382;10.850;2022-10-16T23:03:41;4.03;;;2.57;;
19364;SDS011;9818;48.382;10.850;2022-10-16T23:06:13;4.10;;;2.90;;
19364;SDS011;9818;48.382;10.850;2022-10-16T23:08:42;3.43;;;2.40;;
19364;SDS011;9818;48.382;10.850;2022-10-16T23:11:11;2.80;;;2.50;;
19364;SDS011;9818;48.382;10.850;2022-10-16T23:13:40;2.53;;;2.23;;
19364;SDS011;9818;48.382;10.850;2022-10-16T23:16:11;2.60;;;2.40;;
19364;SDS011;9818;48.382;10.850;2022-10-16T23:18:42;2.27;;;2.03;;
19364;SDS011;9818;48.382;10.850;2022-10-16T23:21:15;3.50;;;2.00;;
19364;SDS011;9818;48.382;10.850;2022-10-16T23:23:45;5.17;;;2.10;;
19364;SDS011;9818;48.382;10.850;2022-10-16T23:26:14;2.63;;;2.40;;
19364;SDS011;9818;48.382;10.850;2022-10-16T23:28:44;3.57;;;2.27;;
19364;SDS011;9818;48.382;10.850;2022-10-16T23:31:14;3.00;;;2.30;;
19364;SDS011;9818;48.382;10.850;2022-10-16T23:33:43;2.30;;;2.00;;
19364;SDS011;9818;48.382;10.850;2022-10-16T23:36:15;2.93;;;1.90;;
19364;SDS011;9818;48.382;10.850;2022-10-16T23:38:45;2.20;;;2.00;;
19364;SDS011;9818;48.382;10.850;2022-10-16T23:41:15;3.00;;;2.00;;
19364;SDS011;9818;48.382;10.850;2022-10-16T23:43:45;4.97;;;2.60;;
19364;SDS011;9818;48.382;10.850;2022-10-16T23:46:15;2.20;;;1.90;;
19364;SDS011;9818;48.382;10.850;2022-10-16T23:48:44;3.03;;;2.00;;
19364;SDS011;9818;48.382;10.850;2022-10-16T23:51:15;3.73;;;1.80;;
19364;SDS011;9818;48.382;10.850;2022-10-16T23:53:44;2.40;;;1.60;;
19364;SDS011;9818;48.382;10.850;2022-10-16T23:56:13;2.83;;;1.70;;
19364;SDS011;9818;48.382;10.850;2022-10-16T23:58:42;2.90;;;1.60;;
